Αρχική σελίδα
METAR-TAF:

METAR-TAF

Αεροδρόμια :

Διεθνές Αεροδρόμιο του Καΐρου

Κάιρο, Αίγυπτος

γεωγραφικό πλάτος: 30-08N, γεωγραφικό μήκος: 031-24E, υψόμετρο: 64 μ

Παρών καιρός

Η αναφορά έγινε 10 λεπτά πριν, στις 00:00 UTC
Άνεμος 3 kt από Α
Θερμοκρασία 11°C
Υγρασία 76%
Πίεση 1016 hPa
Ορατότητα: 4000 μ
καταχνιά

METAR: HECA 220000Z 09003KT 4000 HZ NSC 11/07 Q1016 TEMPO 3000

Χρόνος: 02:10 (00:10 UTC)

Πρόγνωση Καιρού

Η αναφορά έγινε 1 ώρα και 10 λεπτά πριν, στις 23:00 UTC
Η πρόγνωση ισχύει από τις 22 στις 00 UTC έως τις 23 στις 06 UTC
Άνεμος 8 kt από Α
Ορατότητα: 6000 μ
Προσωρινά
από 22 στις 00 UTC έως τις 22 στις 07 UTC
Άνεμος 3 kt από μεταβλητές κατευθύνσεις
Πιθανότητα 40% :
Προσωρινά
από 22 στις 01 UTC έως τις 22 στις 05 UTC

TAF: HECA 212300Z 2200/2306 08008KT 6000 NSC TEMPO 2200/2207 VRB03KT 2000BR PROB40 TEMPO 2201/2205 0800FG

Μετεωρολογικές αναφορές και προγνώσεις για περισσότερα από 4000 αεροδρόμια (δελτία METAR και TAF).

Οι διαθέσιμοι σταθμοί απεικονίζονται στο χάρτη με κίτρινες και κόκκινες κουκκίδες.

Μετακινήστε το ποντίκι πάνω από τις κουκκίδες για να δείτε το όνομα του σταθμού.

Στη συνέχεια, κάντε κλικ για να δείτε τις μετεωρολογικές αναφορές και τις προγνώσεις καιρού.

Για να αλλάξετε το χάρτη: κάντε κλικ στα πράσινα κουμπιά με τον μαύρο σταυρό για να ζουμάρετε, στο πράσινο κουμπί με την παύλα για να αφαιρέσετε το ζουμ ή στα πράσινα βέλη για να αντιπαραβάλλετε χάρτες.


METAR-TAF: